createdAt,value
2017-06-08T00:00:25.228Z,9.70
2017-06-08T00:02:52.756Z,9.70
2017-06-08T00:05:20.322Z,9.50
2017-06-08T00:07:47.833Z,9.80
2017-06-08T00:10:16.042Z,9.70
2017-06-08T00:12:43.625Z,9.80
2017-06-08T00:15:11.147Z,9.70
2017-06-08T00:17:39.451Z,9.60
2017-06-08T00:20:07.045Z,9.50
2017-06-08T00:22:34.555Z,9.70
2017-06-08T00:25:02.075Z,9.70
2017-06-08T00:27:29.652Z,9.90
2017-06-08T00:29:57.941Z,9.40
2017-06-08T00:32:26.232Z,9.50
2017-06-08T00:34:53.800Z,9.40
2017-06-08T00:37:21.371Z,9.50
2017-06-08T00:39:49.049Z,9.50
2017-06-08T00:42:16.614Z,9.50
2017-06-08T00:44:44.133Z,9.50
2017-06-08T00:47:11.657Z,9.40
2017-06-08T00:49:39.225Z,9.60
2017-06-08T00:52:06.780Z,9.80
2017-06-08T00:54:34.335Z,9.60
2017-06-08T00:57:01.933Z,9.50
2017-06-08T00:59:29.448Z,9.40
2017-06-08T01:01:57.115Z,9.30
2017-06-08T01:04:24.938Z,9.20
2017-06-08T01:06:52.453Z,9.20
2017-06-08T01:09:19.972Z,9.30
2017-06-08T01:11:47.533Z,9.30
2017-06-08T01:14:15.350Z,9.20
2017-06-08T01:16:42.901Z,9.40
2017-06-08T01:19:11.297Z,9.00
2017-06-08T01:21:39.815Z,8.90
2017-06-08T01:24:07.329Z,8.90
2017-06-08T01:26:35.667Z,9.00
2017-06-08T01:29:03.181Z,8.90
2017-06-08T01:31:31.461Z,9.20
2017-06-08T01:33:59.812Z,9.10
2017-06-08T01:36:27.385Z,9.00
2017-06-08T01:38:54.892Z,9.30
2017-06-08T01:41:22.453Z,9.00
2017-06-08T01:43:49.966Z,9.00
2017-06-08T01:46:17.696Z,8.90
2017-06-08T01:48:45.257Z,8.70
2017-06-08T01:51:12.772Z,8.90
2017-06-08T01:53:40.293Z,8.80
2017-06-08T01:56:07.864Z,8.90
2017-06-08T01:58:35.595Z,8.90
2017-06-08T02:01:03.113Z,8.70
2017-06-08T02:03:30.803Z,8.50
2017-06-08T02:05:58.314Z,8.30
2017-06-08T02:08:26.664Z,8.60
2017-06-08T02:10:54.356Z,8.50
2017-06-08T02:13:21.874Z,8.70
2017-06-08T02:15:49.546Z,8.60
2017-06-08T02:18:17.122Z,8.60
2017-06-08T02:20:44.640Z,8.50
2017-06-08T02:23:12.152Z,8.50
2017-06-08T02:25:39.708Z,8.60
2017-06-08T02:28:08.017Z,8.70
2017-06-08T02:30:35.537Z,8.60
2017-06-08T02:33:03.221Z,8.50
2017-06-08T02:35:30.731Z,8.50
2017-06-08T02:37:58.242Z,8.40
2017-06-08T02:40:26.573Z,8.20
2017-06-08T02:42:54.084Z,8.10
2017-06-08T02:45:22.390Z,8.30
2017-06-08T02:47:49.991Z,8.20
2017-06-08T02:50:17.501Z,8.40
2017-06-08T02:52:45.029Z,8.60
2017-06-08T02:55:12.588Z,8.50
2017-06-08T02:57:40.103Z,8.40
2017-06-08T03:00:07.617Z,8.50
2017-06-08T03:02:35.187Z,8.50
2017-06-08T03:05:03.591Z,8.30
2017-06-08T03:07:31.265Z,8.20
2017-06-08T03:09:58.863Z,8.00
2017-06-08T03:12:26.384Z,8.20
2017-06-08T03:14:54.260Z,8.10
2017-06-08T03:17:21.860Z,8.20
2017-06-08T03:19:49.553Z,8.20
2017-06-08T03:22:18.038Z,8.30
2017-06-08T03:24:45.558Z,8.20
2017-06-08T03:27:13.079Z,8.30
2017-06-08T03:29:40.641Z,8.10
2017-06-08T03:32:08.157Z,8.30
2017-06-08T03:34:36.440Z,8.00
2017-06-08T03:37:04.138Z,7.90
2017-06-08T03:39:31.649Z,8.00
2017-06-08T03:41:59.172Z,7.90
2017-06-08T03:44:26.736Z,7.80
2017-06-08T03:46:54.245Z,7.80
2017-06-08T03:49:22.612Z,8.10
2017-06-08T03:51:50.293Z,8.00
2017-06-08T03:54:17.926Z,8.10
2017-06-08T03:56:45.440Z,8.20
2017-06-08T03:59:13.169Z,8.40
2017-06-08T04:01:41.453Z,8.50
2017-06-08T04:04:09.879Z,8.60
2017-06-08T04:06:37.468Z,8.50
2017-06-08T04:09:04.981Z,8.60
2017-06-08T04:11:32.588Z,8.70
2017-06-08T04:14:00.135Z,8.60
2017-06-08T04:16:27.657Z,8.60
2017-06-08T04:18:55.181Z,8.70
2017-06-08T04:21:22.747Z,8.90
2017-06-08T04:23:50.270Z,9.00
2017-06-08T04:26:17.790Z,9.10
2017-06-08T04:28:45.365Z,9.10
2017-06-08T04:31:13.029Z,9.20
2017-06-08T04:33:40.550Z,9.10
2017-06-08T04:36:08.879Z,9.30
2017-06-08T04:38:36.560Z,9.20
2017-06-08T04:41:04.074Z,9.40
2017-06-08T04:43:31.637Z,9.50
2017-06-08T04:45:59.149Z,9.80
2017-06-08T04:48:26.667Z,10.00
2017-06-08T04:50:54.228Z,10.10
2017-06-08T04:53:21.744Z,10.30
2017-06-08T04:55:49.265Z,10.50
2017-06-08T04:58:16.824Z,10.70
2017-06-08T05:00:44.333Z,10.70
2017-06-08T05:03:11.848Z,10.90
2017-06-08T05:05:39.411Z,10.90
2017-06-08T05:08:06.919Z,11.10
2017-06-08T05:10:35.192Z,11.10
2017-06-08T05:13:03.499Z,11.40
2017-06-08T05:15:31.009Z,11.30
2017-06-08T05:17:58.561Z,11.60
2017-06-08T05:20:26.092Z,11.70
2017-06-08T05:22:53.639Z,11.50
2017-06-08T05:25:21.217Z,11.70
2017-06-08T05:27:48.741Z,11.90
2017-06-08T05:30:16.823Z,12.00
2017-06-08T05:32:44.376Z,12.00
2017-06-08T05:35:11.883Z,12.00
2017-06-08T05:37:39.467Z,11.90
2017-06-08T05:40:07.062Z,11.70
2017-06-08T05:42:34.577Z,12.00
2017-06-08T05:45:02.257Z,12.30
2017-06-08T05:47:29.813Z,12.50
2017-06-08T05:49:57.352Z,12.60
2017-06-08T05:52:24.999Z,12.50
2017-06-08T05:54:52.581Z,12.80
2017-06-08T05:57:20.084Z,13.00
2017-06-08T05:59:48.352Z,13.70
2017-06-08T06:02:16.672Z,14.00
2017-06-08T06:04:44.860Z,13.90
2017-06-08T06:07:12.364Z,14.30
2017-06-08T06:09:40.680Z,14.50
2017-06-08T06:12:08.187Z,14.40
2017-06-08T06:14:35.701Z,14.70
2017-06-08T06:17:03.258Z,14.90
2017-06-08T06:19:30.768Z,14.90
2017-06-08T06:21:58.311Z,15.00
2017-06-08T06:24:25.859Z,15.20
2017-06-08T06:26:53.370Z,15.20
2017-06-08T06:29:21.647Z,15.40
2017-06-08T06:31:49.203Z,15.30
2017-06-08T06:34:17.473Z,15.40
2017-06-08T06:36:45.757Z,15.70
2017-06-08T06:39:13.334Z,15.60
2017-06-08T06:41:41.004Z,15.70
2017-06-08T06:44:08.664Z,15.80
2017-06-08T06:46:36.215Z,15.80
2017-06-08T06:49:04.487Z,15.90
2017-06-08T06:51:31.997Z,15.90
2017-06-08T06:53:59.540Z,16.00
2017-06-08T06:56:27.111Z,16.10
2017-06-08T06:58:54.619Z,16.30
2017-06-08T07:01:22.941Z,16.60
2017-06-08T07:03:50.448Z,16.60
2017-06-08T07:06:17.965Z,16.80
2017-06-08T07:08:45.639Z,17.00
2017-06-08T07:11:13.154Z,17.40
2017-06-08T07:13:41.616Z,18.00
2017-06-08T07:16:09.941Z,18.20
2017-06-08T07:18:37.448Z,18.10
2017-06-08T07:21:04.963Z,18.40
2017-06-08T07:23:32.519Z,18.60
2017-06-08T07:26:00.040Z,18.70
2017-06-08T07:28:28.477Z,18.70
2017-06-08T07:30:56.037Z,18.60
2017-06-08T07:33:23.548Z,18.80
2017-06-08T07:35:51.940Z,18.80
2017-06-08T07:38:19.510Z,18.70
2017-06-08T07:40:47.067Z,18.90
2017-06-08T07:43:14.563Z,18.80
2017-06-08T07:45:42.119Z,18.80
2017-06-08T07:48:09.656Z,18.80
2017-06-08T07:50:37.280Z,18.90
2017-06-08T07:53:04.834Z,18.60
2017-06-08T07:55:32.349Z,18.80
2017-06-08T07:58:00.076Z,19.00
2017-06-08T08:00:27.627Z,19.20
2017-06-08T08:03:06.966Z,19.30
2017-06-08T08:05:35.299Z,19.50
2017-06-08T08:08:02.814Z,19.50
2017-06-08T08:10:31.087Z,19.20
2017-06-08T08:12:59.410Z,19.00
2017-06-08T08:15:26.924Z,19.00
2017-06-08T08:17:55.210Z,19.20
2017-06-08T08:20:22.782Z,19.10
2017-06-08T08:22:50.296Z,19.20
2017-06-08T08:25:17.812Z,18.80
2017-06-08T08:27:45.373Z,18.90
2017-06-08T08:30:12.884Z,19.20
2017-06-08T08:32:40.389Z,19.50
2017-06-08T08:35:07.956Z,20.00
2017-06-08T08:37:35.472Z,20.10
2017-06-08T08:40:03.757Z,20.20
2017-06-08T08:42:32.077Z,20.10
2017-06-08T08:44:59.584Z,20.00
2017-06-08T08:47:27.865Z,20.50
2017-06-08T08:49:55.426Z,20.40
2017-06-08T08:52:23.705Z,21.00
2017-06-08T08:54:51.996Z,20.70
2017-06-08T08:57:19.551Z,20.70
2017-06-08T08:59:47.829Z,21.00
2017-06-08T09:02:16.115Z,20.90
2017-06-08T09:04:44.056Z,20.90
2017-06-08T09:07:11.573Z,21.10
2017-06-08T09:09:39.093Z,21.50
2017-06-08T09:12:07.412Z,22.00
2017-06-08T09:14:34.926Z,21.90
2017-06-08T09:17:03.201Z,22.00
2017-06-08T09:19:30.770Z,22.00
2017-06-08T09:21:58.281Z,21.90
2017-06-08T09:24:25.799Z,21.70
2017-06-08T09:26:53.353Z,21.40
2017-06-08T09:29:20.873Z,21.00
2017-06-08T09:31:48.383Z,21.20
2017-06-08T09:34:15.960Z,21.40
2017-06-08T09:36:43.468Z,21.20
2017-06-08T09:39:11.748Z,21.10
2017-06-08T09:41:39.289Z,21.00
2017-06-08T09:44:06.825Z,21.20
2017-06-08T09:46:34.486Z,21.40
2017-06-08T09:49:02.825Z,21.60
2017-06-08T09:51:31.096Z,21.70
2017-06-08T09:53:59.403Z,21.70
2017-06-08T09:56:27.101Z,21.70
2017-06-08T09:58:54.650Z,21.60
2017-06-08T10:01:22.155Z,21.50
2017-06-08T10:03:50.463Z,21.50
2017-06-08T10:06:18.097Z,21.40
2017-06-08T10:08:45.660Z,21.10
2017-06-08T10:11:13.935Z,21.60
2017-06-08T10:13:42.204Z,22.10
2017-06-08T10:16:10.526Z,22.30
2017-06-08T10:18:38.036Z,22.20
2017-06-08T10:21:05.546Z,22.50
2017-06-08T10:23:33.104Z,22.30
2017-06-08T10:26:00.612Z,22.00
2017-06-08T10:28:28.126Z,22.40
2017-06-08T10:30:55.678Z,22.80
2017-06-08T10:33:24.133Z,22.30
2017-06-08T10:35:52.425Z,22.50
2017-06-08T10:38:20.106Z,22.50
2017-06-08T10:40:47.624Z,22.90
2017-06-08T10:43:16.039Z,23.40
2017-06-08T10:45:43.575Z,23.40
2017-06-08T10:48:11.903Z,23.40
2017-06-08T10:50:39.412Z,23.30
2017-06-08T10:53:06.919Z,23.30
2017-06-08T10:55:34.461Z,23.40
2017-06-08T10:58:01.985Z,23.30
2017-06-08T11:00:30.387Z,22.90
2017-06-08T11:02:57.897Z,22.80
2017-06-08T11:05:25.452Z,23.10
2017-06-08T11:07:52.956Z,23.60
2017-06-08T11:10:21.704Z,24.30
2017-06-08T11:12:49.311Z,24.20
2017-06-08T11:15:16.823Z,24.60
2017-06-08T11:17:44.364Z,24.50
2017-06-08T11:20:11.878Z,24.60
2017-06-08T11:22:40.213Z,24.60
2017-06-08T11:25:07.857Z,24.60
2017-06-08T11:27:35.421Z,24.70
2017-06-08T11:30:03.083Z,24.90
2017-06-08T11:32:30.591Z,24.90
2017-06-08T11:34:58.132Z,25.10
2017-06-08T11:37:25.655Z,25.40
2017-06-08T11:39:53.208Z,25.40
2017-06-08T11:42:20.716Z,25.30
2017-06-08T11:44:48.224Z,25.30
2017-06-08T11:47:15.769Z,25.50
2017-06-08T11:49:44.067Z,25.40
2017-06-08T11:52:11.623Z,25.40
2017-06-08T11:54:39.127Z,25.30
2017-06-08T11:57:06.632Z,25.50
2017-06-08T11:59:34.192Z,25.70
2017-06-08T12:02:01.883Z,26.00
2017-06-08T12:04:29.396Z,26.20
2017-06-08T12:06:56.949Z,26.10
2017-06-08T12:09:24.463Z,25.80
2017-06-08T12:11:51.984Z,26.00
2017-06-08T12:14:20.315Z,26.00
2017-06-08T12:16:47.828Z,25.90
2017-06-08T12:19:16.102Z,25.70
2017-06-08T12:21:44.492Z,25.40
2017-06-08T12:24:12.003Z,25.30
2017-06-08T12:26:39.521Z,25.50
2017-06-08T12:29:15.624Z,25.40
2017-06-08T12:31:43.310Z,25.50
2017-06-08T12:34:10.876Z,25.60
2017-06-08T12:36:39.260Z,25.30
2017-06-08T12:39:07.683Z,25.30
2017-06-08T12:41:35.234Z,25.20
2017-06-08T12:44:02.748Z,25.20
2017-06-08T12:46:30.485Z,24.80
2017-06-08T12:48:58.213Z,24.70
2017-06-08T12:51:25.728Z,24.50
2017-06-08T12:53:53.567Z,24.00
2017-06-08T12:56:21.108Z,23.80
2017-06-08T12:58:48.749Z,23.20
2017-06-08T13:01:16.305Z,23.40
2017-06-08T13:03:44.589Z,23.30
2017-06-08T13:06:12.212Z,23.30
2017-06-08T13:08:39.873Z,23.40
2017-06-08T13:11:07.393Z,23.50
2017-06-08T13:13:34.953Z,23.50
2017-06-08T13:16:02.473Z,23.40
2017-06-08T13:18:30.019Z,23.30
2017-06-08T13:20:57.679Z,23.50
2017-06-08T13:23:25.196Z,23.60
2017-06-08T13:25:52.773Z,23.60
2017-06-08T13:28:20.373Z,23.50
2017-06-08T13:30:48.003Z,23.60
2017-06-08T13:33:15.515Z,23.70
2017-06-08T13:35:43.099Z,23.50
2017-06-08T13:38:10.624Z,23.60
2017-06-08T13:40:38.907Z,23.60
2017-06-08T13:43:07.230Z,23.60
2017-06-08T13:45:34.749Z,23.60
2017-06-08T13:48:03.156Z,23.70
2017-06-08T13:50:30.737Z,23.70
2017-06-08T13:52:58.256Z,23.70
2017-06-08T13:55:25.812Z,23.70
2017-06-08T13:57:54.143Z,23.30
2017-06-08T14:00:21.656Z,23.30
2017-06-08T14:02:49.165Z,23.40
2017-06-08T14:05:16.821Z,23.30
2017-06-08T14:07:44.373Z,23.10
2017-06-08T14:10:12.021Z,23.10
2017-06-08T14:12:39.747Z,23.20
2017-06-08T14:15:07.324Z,23.40
2017-06-08T14:17:34.881Z,23.50
2017-06-08T14:20:02.396Z,23.40
2017-06-08T14:22:29.912Z,23.40
2017-06-08T14:24:57.455Z,23.40
2017-06-08T14:27:25.207Z,23.40
2017-06-08T14:29:52.717Z,23.10
2017-06-08T14:32:20.235Z,23.00
2017-06-08T14:34:48.564Z,22.90
2017-06-08T14:37:16.353Z,22.80
2017-06-08T14:39:43.873Z,23.00
2017-06-08T14:42:11.495Z,23.10
2017-06-08T14:44:39.815Z,23.20
2017-06-08T14:47:07.333Z,23.10
2017-06-08T14:49:35.612Z,23.10
2017-06-08T14:52:03.984Z,23.00
2017-06-08T14:54:31.521Z,23.00
2017-06-08T14:56:59.058Z,22.90
2017-06-08T14:59:26.602Z,23.00
2017-06-08T15:01:54.155Z,23.10
2017-06-08T15:04:21.751Z,23.00
2017-06-08T15:06:49.287Z,23.10
2017-06-08T15:09:16.857Z,22.90
2017-06-08T15:11:44.528Z,22.80
2017-06-08T15:14:12.115Z,23.10
2017-06-08T15:16:39.655Z,23.10
2017-06-08T15:19:07.196Z,22.90
2017-06-08T15:21:34.781Z,23.00
2017-06-08T15:24:02.299Z,22.80
2017-06-08T15:26:29.884Z,22.80
2017-06-08T15:28:57.403Z,22.80
2017-06-08T15:31:25.851Z,22.90
2017-06-08T15:33:53.411Z,22.80
2017-06-08T15:36:20.972Z,22.70
2017-06-08T15:38:48.495Z,22.50
2017-06-08T15:41:16.233Z,22.30
2017-06-08T15:43:43.800Z,22.40
2017-06-08T15:46:11.311Z,22.40
2017-06-08T15:48:38.939Z,22.30
2017-06-08T15:51:06.460Z,22.30
2017-06-08T15:53:34.015Z,22.30
2017-06-08T15:56:01.580Z,22.10
2017-06-08T15:58:29.897Z,22.20
2017-06-08T16:00:57.551Z,22.10
2017-06-08T16:03:25.199Z,22.10
2017-06-08T16:05:52.821Z,22.10
2017-06-08T16:08:20.463Z,22.10
2017-06-08T16:10:48.036Z,22.10
2017-06-08T16:13:15.632Z,22.20
2017-06-08T16:15:43.196Z,22.10
2017-06-08T16:18:11.471Z,21.90
2017-06-08T16:20:39.798Z,21.90
2017-06-08T16:23:07.314Z,21.80
2017-06-08T16:25:34.881Z,22.00
2017-06-08T16:28:02.568Z,22.00
2017-06-08T16:30:30.335Z,21.90
2017-06-08T16:32:57.852Z,21.80
2017-06-08T16:35:25.585Z,21.80
2017-06-08T16:37:53.107Z,21.80
2017-06-08T16:40:20.628Z,21.80
2017-06-08T16:42:48.188Z,21.90
2017-06-08T16:45:15.695Z,22.00
2017-06-08T16:47:43.212Z,21.90
2017-06-08T16:50:10.776Z,21.70
2017-06-08T16:52:38.295Z,21.70
2017-06-08T16:55:05.805Z,21.70
2017-06-08T16:57:34.224Z,21.60
2017-06-08T17:00:01.733Z,21.60
2017-06-08T17:02:29.710Z,21.60
2017-06-08T17:04:57.416Z,21.60
2017-06-08T17:07:24.973Z,21.70
2017-06-08T17:09:52.492Z,21.60
2017-06-08T17:12:20.037Z,21.50
2017-06-08T17:14:47.635Z,21.50
2017-06-08T17:17:16.033Z,21.40
2017-06-08T17:19:43.562Z,21.40
2017-06-08T17:22:11.088Z,21.40
2017-06-08T17:24:38.630Z,21.30
2017-06-08T17:27:06.188Z,21.30
2017-06-08T17:29:33.772Z,21.30
2017-06-08T17:32:01.314Z,21.30
2017-06-08T17:34:31.612Z,21.30
2017-06-08T17:37:01.705Z,21.20
2017-06-08T17:39:31.566Z,21.20
2017-06-08T17:42:00.535Z,21.20
2017-06-08T17:44:39.846Z,21.20
2017-06-08T17:49:47.635Z,21.10
2017-06-08T17:52:15.983Z,21.10
2017-06-08T18:00:11.855Z,21.00
2017-06-08T18:05:31.985Z,20.80
2017-06-08T18:08:00.080Z,20.70
2017-06-08T18:10:28.047Z,20.50
2017-06-08T18:12:55.996Z,20.40
2017-06-08T18:15:28.186Z,20.30
2017-06-08T18:17:56.049Z,20.20
2017-06-08T18:20:23.687Z,20.20
2017-06-08T18:22:51.268Z,20.00
2017-06-08T18:25:18.867Z,19.90
2017-06-08T18:27:46.639Z,19.80
2017-06-08T18:30:14.180Z,19.80
2017-06-08T18:32:42.528Z,19.50
2017-06-08T18:35:10.079Z,19.50
2017-06-08T18:37:37.661Z,19.40
2017-06-08T18:40:06.029Z,19.40
2017-06-08T18:42:33.588Z,19.30
2017-06-08T18:45:01.156Z,19.30
2017-06-08T18:47:28.731Z,19.20
2017-06-08T18:49:56.245Z,19.10
2017-06-08T18:52:23.752Z,19.00
2017-06-08T18:54:51.319Z,19.10
2017-06-08T18:57:19.596Z,18.80
2017-06-08T18:59:47.885Z,18.80
2017-06-08T19:02:16.220Z,18.90
2017-06-08T19:04:43.732Z,18.80
2017-06-08T19:07:11.253Z,18.60
2017-06-08T19:09:38.817Z,18.50
2017-06-08T19:12:06.333Z,18.30
2017-06-08T19:17:30.382Z,17.80
2017-06-08T19:19:57.901Z,17.80
2017-06-08T19:22:25.416Z,17.60
2017-06-08T19:24:53.746Z,17.30
2017-06-08T19:27:21.267Z,17.30
2017-06-08T19:29:48.792Z,17.20
2017-06-08T19:32:16.367Z,17.10
2017-06-08T19:34:43.887Z,17.00
2017-06-08T19:37:11.409Z,17.00
2017-06-08T19:39:38.981Z,16.90
2017-06-08T19:42:06.618Z,16.80
2017-06-08T19:44:34.154Z,16.70
2017-06-08T19:47:02.002Z,16.60
2017-06-08T19:49:29.520Z,16.60
2017-06-08T19:51:57.054Z,16.60
2017-06-08T19:54:24.627Z,16.70
2017-06-08T19:56:52.931Z,16.50
2017-06-08T19:59:20.462Z,16.40
2017-06-08T20:01:49.089Z,16.20
2017-06-08T20:04:16.700Z,16.10
2017-06-08T20:06:45.009Z,16.10
2017-06-08T20:09:12.577Z,16.00
2017-06-08T20:11:40.106Z,16.10
2017-06-08T20:14:07.649Z,16.10
2017-06-08T20:16:35.468Z,16.00
2017-06-08T20:19:02.994Z,15.80
2017-06-08T20:21:31.433Z,15.50
2017-06-08T20:23:59.016Z,15.50
2017-06-08T20:26:26.536Z,15.50
2017-06-08T20:28:54.280Z,15.40
2017-06-08T20:31:22.177Z,15.30
2017-06-08T20:33:49.728Z,15.20
2017-06-08T20:36:17.408Z,15.10
2017-06-08T20:38:45.253Z,15.20
2017-06-08T20:41:12.800Z,15.20
2017-06-08T20:43:40.325Z,15.20
2017-06-08T20:46:07.900Z,15.10
2017-06-08T20:48:35.571Z,15.10
2017-06-08T20:51:03.869Z,14.90
2017-06-08T20:53:31.595Z,14.80
2017-06-08T20:55:59.927Z,14.90
2017-06-08T20:58:27.478Z,14.80
2017-06-08T21:00:55.160Z,14.70
2017-06-08T21:03:22.685Z,14.70
2017-06-08T21:05:50.205Z,14.50
2017-06-08T21:08:17.775Z,14.50
2017-06-08T21:10:45.292Z,14.50
2017-06-08T21:13:12.920Z,14.70
2017-06-08T21:15:40.506Z,14.50
2017-06-08T21:18:08.095Z,14.60
2017-06-08T21:20:35.633Z,14.50
2017-06-08T21:23:03.282Z,14.50
2017-06-08T21:25:30.818Z,14.40
2017-06-08T21:27:59.128Z,14.30
2017-06-08T21:30:26.746Z,14.20
2017-06-08T21:32:54.292Z,14.20
2017-06-08T21:35:22.088Z,14.20
2017-06-08T21:37:49.673Z,14.20
2017-06-08T21:40:17.851Z,14.10
2017-06-08T21:42:45.660Z,14.20
2017-06-08T21:45:13.240Z,14.10
2017-06-08T21:47:41.530Z,14.10
2017-06-08T21:50:09.053Z,14.10
2017-06-08T21:52:36.625Z,14.00
2017-06-08T21:55:04.246Z,14.00
2017-06-08T21:57:32.073Z,14.00
2017-06-08T21:59:59.637Z,14.00
2017-06-08T22:02:27.944Z,13.90
2017-06-08T22:04:55.674Z,13.90
2017-06-08T22:07:23.264Z,13.90
2017-06-08T22:09:51.064Z,13.90
2017-06-08T22:12:18.626Z,13.80
2017-06-08T22:14:46.208Z,13.70
2017-06-08T22:17:13.727Z,13.60
2017-06-08T22:19:41.384Z,13.50
2017-06-08T22:22:08.992Z,13.60
2017-06-08T22:24:36.600Z,13.60
2017-06-08T22:27:04.137Z,13.60
2017-06-08T22:29:31.846Z,13.40
2017-06-08T22:31:59.643Z,13.50
2017-06-08T22:34:27.253Z,13.50
2017-06-08T22:36:54.956Z,13.40
2017-06-08T22:39:22.480Z,13.40
2017-06-08T22:41:50.160Z,13.40
2017-06-08T22:44:17.725Z,13.30
2017-06-08T22:46:45.249Z,13.30
2017-06-08T22:49:12.916Z,13.20
2017-06-08T22:51:40.478Z,13.10
2017-06-08T22:54:08.263Z,13.10
2017-06-08T22:56:35.782Z,13.00
2017-06-08T22:59:04.336Z,13.20
2017-06-08T23:01:32.659Z,13.10
2017-06-08T23:04:00.219Z,13.00
2017-06-08T23:06:27.885Z,13.20
2017-06-08T23:08:55.489Z,13.10
2017-06-08T23:11:23.134Z,13.00
2017-06-08T23:13:50.706Z,12.90
2017-06-08T23:16:18.434Z,12.80
2017-06-08T23:18:45.953Z,13.00
2017-06-08T23:21:13.518Z,12.90
2017-06-08T23:23:41.077Z,12.90
2017-06-08T23:26:08.591Z,12.70
2017-06-08T23:28:36.127Z,12.70
2017-06-08T23:31:03.687Z,12.60
2017-06-08T23:33:31.228Z,12.70
2017-06-08T23:35:59.531Z,12.50
2017-06-08T23:38:27.265Z,12.40
2017-06-08T23:40:54.789Z,12.40
2017-06-08T23:43:22.361Z,12.50
2017-06-08T23:45:49.942Z,12.50
2017-06-08T23:48:17.457Z,12.50
2017-06-08T23:50:45.086Z,12.60
2017-06-08T23:53:13.459Z,12.50
2017-06-08T23:55:41.960Z,12.40
2017-06-08T23:58:09.636Z,12.40
